Time;durP1;ratioP1;P1;durP2;ratioP2;P2;SDS_P1;SDS_P2;PMS_P1;PMS_P2;Temp;Humidity;BMP_temperature;BMP_pressure;BME280_temperature;BME280_humidity;BME280_pressure;Samples;Min_cycle;Max_cycle;Signal;HPM_P1;HPM_P2
2022/12/12 00:02:03;;;;;;;42.65;25.88;;;;;;;-1.47;100.00;98526.59;5075712;28;20032;-88
2022/12/12 00:04:28;;;;;;;36.58;23.60;;;;;;;-1.49;100.00;98524.91;5075400;28;20472;-88
2022/12/12 00:06:53;;;;;;;40.47;25.05;;;;;;;-1.56;100.00;98519.91;5093953;28;20028;-88
2022/12/12 00:09:19;;;;;;;39.55;24.75;;;;;;;-1.48;100.00;98540.19;5076026;28;20050;-88
2022/12/12 00:11:44;;;;;;;44.53;26.67;;;;;;;-1.54;100.00;98525.81;5075616;28;20032;-88
2022/12/12 00:14:09;;;;;;;41.65;24.55;;;;;;;-1.69;100.00;98502.25;5075756;28;20379;-88
2022/12/12 00:16:35;;;;;;;48.70;24.67;;;;;;;-1.49;100.00;98535.97;5075596;28;20363;-88
2022/12/12 00:19:00;;;;;;;38.58;23.52;;;;;;;-1.50;100.00;98531.72;5075316;28;20431;-88
2022/12/12 00:21:28;;;;;;;43.30;24.52;;;;;;;-1.52;100.00;98523.25;5075729;28;20024;-88
2022/12/12 00:23:54;;;;;;;39.33;23.30;;;;;;;-1.53;100.00;98519.00;5050392;28;20432;-88
2022/12/12 00:26:25;;;;;;;38.55;23.58;;;;;;;-1.48;100.00;98529.16;5034257;28;20033;-88
2022/12/12 00:28:51;;;;;;;33.28;21.40;;;;;;;-1.52;100.00;98531.78;5034037;28;20420;-88
2022/12/12 00:31:17;;;;;;;34.45;21.85;;;;;;;-1.51;100.00;98533.44;5034215;28;20056;-88
2022/12/12 00:33:45;;;;;;;38.58;23.02;;;;;;;-1.48;100.00;98535.09;5034097;28;20098;-88
2022/12/12 00:36:11;;;;;;;37.28;22.85;;;;;;;-1.58;100.00;98502.94;5033900;28;20024;-88
2022/12/12 00:38:36;;;;;;;34.10;21.65;;;;;;;-1.43;100.00;98522.25;5033898;28;20499;-88
2022/12/12 00:41:02;;;;;;;40.28;23.52;;;;;;;-1.40;100.00;98529.88;5033842;28;20076;-88
2022/12/12 00:43:27;;;;;;;42.22;25.00;;;;;;;-1.42;100.00;98535.00;5033893;28;20090;-88
2022/12/12 00:45:53;;;;;;;43.08;25.05;;;;;;;-1.47;100.00;98518.94;5033680;28;20028;-88
2022/12/12 00:48:19;;;;;;;36.75;22.70;;;;;;;-1.48;100.00;98532.53;5050100;28;20029;-88
2022/12/12 00:50:45;;;;;;;39.95;22.92;;;;;;;-1.55;100.00;98529.25;5033740;28;20033;-88
2022/12/12 00:53:12;;;;;;;37.78;24.02;;;;;;;-1.47;100.00;98538.50;5033566;28;20029;-88
2022/12/12 00:55:37;;;;;;;41.00;25.27;;;;;;;-1.49;100.00;98530.84;5066902;28;20112;-88
2022/12/12 00:58:03;;;;;;;35.80;22.58;;;;;;;-1.47;100.00;98543.63;5074506;28;20016;-88
2022/12/12 01:00:28;;;;;;;41.63;23.58;;;;;;;-1.46;100.00;98545.31;5074702;28;20527;-88
2022/12/12 01:02:57;;;;;;;39.20;24.15;;;;;;;-1.49;100.00;98535.13;5074162;28;20177;-88
2022/12/12 01:05:23;;;;;;;36.15;21.58;;;;;;;-1.43;100.00;98542.69;5074871;28;20508;-88
2022/12/12 01:07:48;;;;;;;37.55;21.55;;;;;;;-1.43;100.00;98545.22;5074733;28;20119;-88
2022/12/12 01:10:14;;;;;;;37.40;23.25;;;;;;;-1.42;100.00;98547.78;5074712;28;20391;-88
2022/12/12 01:12:39;;;;;;;36.88;22.38;;;;;;;-1.51;100.00;98532.59;5074633;28;20371;-87
2022/12/12 01:15:06;;;;;;;35.00;21.35;;;;;;;-1.44;100.00;98546.09;5092426;28;20099;-88
2022/12/12 01:17:36;;;;;;;34.63;22.63;;;;;;;-1.46;100.00;98542.75;5074524;28;20032;-88
2022/12/12 01:20:24;;;;;;;33.22;20.55;;;;;;;-1.48;100.00;98547.84;5074415;28;20012;-88
2022/12/12 01:22:49;;;;;;;39.22;22.60;;;;;;;-1.45;100.00;98544.44;5074293;28;20103;-88
2022/12/12 01:25:16;;;;;;;35.13;22.55;;;;;;;-1.44;100.00;98551.22;5074330;28;20260;-88
2022/12/12 01:27:42;;;;;;;32.35;19.90;;;;;;;-1.44;100.00;98543.56;5074209;28;20024;-88
2022/12/12 01:30:11;;;;;;;37.63;21.52;;;;;;;-1.38;100.00;98559.63;5074242;28;20099;-88
2022/12/12 01:32:36;;;;;;;40.08;23.17;;;;;;;-1.40;100.00;98542.63;5074456;28;20027;-88
2022/12/12 01:35:06;;;;;;;34.33;22.25;;;;;;;-1.39;100.00;98549.41;5074148;28;20371;-88
2022/12/12 01:37:32;;;;;;;40.63;22.52;;;;;;;-1.37;100.00;98547.69;5074292;28;20020;-88
2022/12/12 01:39:57;;;;;;;36.92;22.25;;;;;;;-1.51;100.00;98530.91;5073885;28;20024;-88
2022/12/12 01:42:23;;;;;;;38.95;22.45;;;;;;;-1.39;100.00;98547.75;5092164;28;20452;-88
2022/12/12 01:44:52;;;;;;;36.22;21.85;;;;;;;-1.57;100.00;98515.66;5073918;28;20059;-88
2022/12/12 01:47:20;;;;;;;39.08;22.20;;;;;;;-1.39;100.00;98542.63;5074138;28;20031;-88
2022/12/12 01:50:00;;;;;;;38.78;21.10;;;;;;;-1.43;100.00;98537.56;5074169;28;20093;-88
2022/12/12 01:52:29;;;;;;;38.90;22.98;;;;;;;-1.43;100.00;98542.69;5074080;28;20055;-88
2022/12/12 01:54:58;;;;;;;39.30;22.15;;;;;;;-1.51;100.00;98535.16;5073416;28;20065;-88
2022/12/12 01:57:36;;;;;;;36.90;21.98;;;;;;;-1.41;100.00;98544.34;5092190;28;20480;-88
2022/12/12 02:00:06;;;;;;;38.42;21.80;;;;;;;-1.41;100.00;98540.97;5072992;28;20383;-89
2022/12/12 02:02:33;;;;;;;37.88;21.58;;;;;;;-1.43;100.00;98540.13;5073615;28;20040;-88
2022/12/12 02:05:04;;;;;;;36.58;22.60;;;;;;;-1.45;100.00;98537.59;5092090;28;20024;-88
2022/12/12 02:07:29;;;;;;;40.53;23.75;;;;;;;-1.41;100.00;98546.91;5073705;28;20081;-88
2022/12/12 02:09:54;;;;;;;37.88;22.90;;;;;;;-1.40;100.00;98550.28;5073826;28;20020;-88
2022/12/12 02:12:19;;;;;;;39.67;23.13;;;;;;;-1.43;100.00;98535.00;5073742;28;20123;-88
2022/12/12 02:14:48;;;;;;;39.55;22.02;;;;;;;-1.41;100.00;98538.41;5073809;28;20020;-88
2022/12/12 02:17:17;;;;;;;37.95;22.85;;;;;;;-1.36;100.00;98545.13;5073519;28;20486;-88
2022/12/12 02:19:57;;;;;;;35.80;21.58;;;;;;;-1.36;100.00;98551.94;5073674;28;20031;-88
2022/12/12 02:22:46;;;;;;;43.85;22.45;;;;;;;-1.38;100.00;98546.88;5073782;28;20409;-88
2022/12/12 02:25:30;;;;;;;39.65;22.85;;;;;;;-1.39;100.00;98549.41;5073536;28;20020;-88
2022/12/12 02:28:13;;;;;;;39.00;23.33;;;;;;;-1.41;100.00;98548.63;5073367;28;20051;-88
2022/12/12 02:31:06;;;;;;;41.17;23.30;;;;;;;-1.41;100.00;98548.63;5073895;28;20371;-88
2022/12/12 02:33:37;;;;;;;40.65;22.73;;;;;;;-1.41;100.00;98553.72;5073650;28;20363;-88
2022/12/12 02:36:08;;;;;;;42.70;24.00;;;;;;;-1.41;100.00;98549.47;5073295;28;20077;-88
2022/12/12 02:38:44;;;;;;;43.97;22.98;;;;;;;-1.40;100.00;98553.69;5073335;28;20036;-89
2022/12/12 02:41:43;;;;;;;41.05;22.60;;;;;;;-1.42;100.00;98545.22;5073545;28;20050;-89
2022/12/12 02:44:24;;;;;;;39.90;23.83;;;;;;;-1.47;100.00;98530.84;4973217;28;20034;-88
2022/12/12 02:47:08;;;;;;;45.20;24.48;;;;;;;-1.45;100.00;98542.72;4989528;28;20022;-89
2022/12/12 02:49:57;;;;;;;43.08;23.55;;;;;;;-1.49;100.00;98528.31;4989764;28;20030;-88
2022/12/12 02:52:22;;;;;;;46.63;24.65;;;;;;;-1.42;100.00;98550.34;4950726;29;20042;-88
2022/12/12 02:54:48;;;;;;;39.15;22.88;;;;;;;-1.43;100.00;98535.00;4934887;29;20035;-89
2022/12/12 02:57:19;;;;;;;40.45;24.08;;;;;;;-1.43;100.00;98542.69;4934717;29;20047;-88
2022/12/12 03:00:05;;;;;;;38.67;22.90;;;;;;;-1.41;100.00;98544.34;4935006;29;20058;-89
2022/12/12 03:07:45;;;;;;;42.42;24.33;;;;;;;-1.48;100.00;98529.97;4933577;28;20061;-88
2022/12/12 03:09:10;;;;;;;47.28;24.58;;;;;;;-1.39;100.00;98539.22;4893809;29;20380;-88
2022/12/12 03:12:03;;;;;;;43.78;24.92;;;;;;;-1.41;100.00;98534.13;4879885;29;20044;-89
2022/12/12 03:14:35;;;;;;;50.60;25.95;;;;;;;-1.43;100.00;98547.78;4897340;29;20076;-89
2022/12/12 03:17:14;;;;;;;49.17;24.70;;;;;;;-1.46;100.00;98548.69;4881181;29;20664;-88
2022/12/12 03:19:53;;;;;;;56.70;27.55;;;;;;;-1.45;100.00;98549.53;4905868;29;20039;-88
2022/12/12 03:22:33;;;;;;;50.28;25.70;;;;;;;-1.47;100.00;98547.00;4916530;29;20036;-89
2022/12/12 03:25:09;;;;;;;50.63;26.73;;;;;;;-1.45;100.00;98549.53;4918872;29;20085;-88
2022/12/12 03:27:45;;;;;;;55.85;27.50;;;;;;;-1.48;100.00;98541.91;4918988;29;20044;-88
2022/12/12 03:30:14;;;;;;;50.28;25.80;;;;;;;-1.48;100.00;98544.47;4918711;29;20055;-88
2022/12/12 03:33:02;;;;;;;53.92;27.35;;;;;;;-1.45;100.00;98545.25;4950596;29;20046;-88
2022/12/12 03:35:33;;;;;;;44.88;25.10;;;;;;;-1.44;100.00;98538.44;4918909;29;20027;-88
2022/12/12 03:38:14;;;;;;;46.22;25.25;;;;;;;-1.45;100.00;98542.72;4918383;29;20135;-88
2022/12/12 03:40:45;;;;;;;42.60;25.00;;;;;;;-1.43;100.00;98543.53;5001260;28;20041;-89
2022/12/12 03:43:15;;;;;;;43.70;25.70;;;;;;;-1.42;100.00;98534.16;5011631;28;20622;-88
2022/12/12 03:45:46;;;;;;;39.97;24.38;;;;;;;-1.42;100.00;98532.47;4995666;28;20038;-89
2022/12/12 03:48:14;;;;;;;;;;;;;;;-1.41;100.00;98538.41;5012246;28;20450;-88
2022/12/12 03:50:48;;;;;;;42.83;24.27;;;;;;;-1.47;100.00;98528.31;4995539;28;19913;-88
2022/12/12 03:53:26;;;;;;;42.45;24.40;;;;;;;-1.43;100.00;98535.00;5004438;28;20044;-89
2022/12/12 03:56:20;;;;;;;41.45;24.08;;;;;;;-1.45;100.00;98537.59;5031687;28;20029;-88
2022/12/12 03:59:01;;;;;;;39.97;22.73;;;;;;;-1.46;100.00;98529.97;5031562;28;20060;-88
2022/12/12 04:01:35;;;;;;;43.50;23.02;;;;;;;-1.45;100.00;98527.38;5014985;28;20286;-88
2022/12/12 04:04:21;;;;;;;41.10;24.20;;;;;;;-1.42;100.00;98524.78;5027411;28;20075;-88
2022/12/12 04:06:55;;;;;;;40.72;23.23;;;;;;;-1.40;100.00;98534.97;5034605;28;20059;-88
2022/12/12 04:15:12;;;;;;;42.30;22.65;;;;;;;-1.40;100.00;98525.59;5089406;28;20108;-88
2022/12/12 04:17:44;;;;;;;38.75;21.98;;;;;;;-1.44;100.00;98511.19;5075683;28;20027;-89
2022/12/12 04:23:43;;;;;;;38.25;21.90;;;;;;;-1.45;100.00;98504.41;5092902;28;20095;-88
2022/12/12 04:26:39;;;;;;;35.70;21.77;;;;;;;-1.42;100.00;98506.91;4975193;28;20034;-88
2022/12/12 04:29:14;;;;;;;39.20;22.35;;;;;;;-1.40;100.00;98507.72;4991471;28;20441;-88
2022/12/12 04:32:02;;;;;;;41.70;22.27;;;;;;;-1.41;100.00;98511.16;4991471;28;20026;-88
2022/12/12 04:34:58;;;;;;;39.15;21.67;;;;;;;-1.36;100.00;98517.00;4975072;28;20057;-89
2022/12/12 04:37:29;;;;;;;36.15;21.67;;;;;;;-1.47;100.00;98506.16;4974787;28;20113;-89
2022/12/12 04:39:58;;;;;;;35.40;22.48;;;;;;;-1.37;100.00;98520.44;4991353;28;20051;-88
2022/12/12 04:42:29;;;;;;;40.05;21.67;;;;;;;-1.36;100.00;98527.22;4974679;28;20026;-88
2022/12/12 04:45:05;;;;;;;31.95;21.17;;;;;;;-1.34;100.00;98510.19;4975095;28;20061;-88
2022/12/12 04:47:34;;;;;;;40.22;23.65;;;;;;;-1.38;100.00;98517.94;4991209;28;20030;-88
2022/12/12 04:50:00;;;;;;;36.60;22.55;;;;;;;-1.36;100.00;98514.47;4974949;28;20169;-88
2022/12/12 04:52:27;;;;;;;38.78;23.20;;;;;;;-1.35;100.00;98523.84;4974573;28;20109;-89
2022/12/12 04:55:02;;;;;;;38.50;24.02;;;;;;;-1.43;100.00;98499.25;4991047;28;20026;-88
2022/12/12 04:57:38;;;;;;;42.83;22.67;;;;;;;-1.31;100.00;98522.03;4974750;28;20543;-88
2022/12/12 05:00:05;;;;;;;36.10;22.08;;;;;;;-1.33;100.00;98518.69;4974540;28;20029;-88
2022/12/12 05:02:38;;;;;;;34.17;20.92;;;;;;;-1.32;100.00;98522.91;5018913;28;20036;-89
2022/12/12 05:05:14;;;;;;;40.88;22.83;;;;;;;-1.33;100.00;98519.53;5074685;28;20050;-88
2022/12/12 05:07:43;;;;;;;38.03;22.88;;;;;;;-1.31;100.00;98522.91;5074781;28;20044;-88
2022/12/12 05:10:17;;;;;;;38.72;22.40;;;;;;;-1.30;100.00;98518.66;5074368;28;20020;-88
2022/12/12 05:12:47;;;;;;;38.45;22.00;;;;;;;-1.28;100.00;98519.44;5074493;28;20035;-89
2022/12/12 05:15:13;;;;;;;;;;;;;;;-1.27;100.00;98521.13;5074804;28;20035;-89
2022/12/12 05:17:45;;;;;;;37.97;20.75;;;;;;;-1.28;100.00;98517.72;5074528;28;19908;-90
2022/12/12 05:20:11;;;;;;;36.42;22.48;;;;;;;-1.32;100.00;98510.16;5074328;28;20020;-90
2022/12/12 05:22:37;;;;;;;34.88;21.30;;;;;;;-1.32;100.00;98517.81;5074453;28;20375;-89
2022/12/12 05:25:02;;;;;;;33.85;21.65;;;;;;;-1.30;100.00;98516.94;5074460;28;20028;-89
2022/12/12 05:27:28;;;;;;;37.08;22.13;;;;;;;-1.28;100.00;98520.28;5074116;28;20020;-89
2022/12/12 05:29:53;;;;;;;36.72;21.05;;;;;;;-1.28;100.00;98520.28;5074553;28;20020;-90
2022/12/12 05:32:18;;;;;;;35.53;20.95;;;;;;;-1.27;100.00;98510.91;5074238;28;20069;-90
2022/12/12 05:34:44;;;;;;;36.28;20.88;;;;;;;-1.24;100.00;98507.47;5074332;28;20031;-91
2022/12/12 05:37:10;;;;;;;35.53;21.35;;;;;;;-1.26;100.00;98510.06;5073896;28;20399;-90
2022/12/12 05:39:35;;;;;;;36.10;21.88;;;;;;;-1.22;100.00;98498.06;5074163;28;20035;-90
2022/12/12 05:42:00;;;;;;;32.25;20.13;;;;;;;-1.22;100.00;98500.59;5074110;28;20070;-90
2022/12/12 05:44:26;;;;;;;37.80;21.15;;;;;;;-1.22;100.00;98498.91;5074091;28;20028;-90
2022/12/12 05:46:51;;;;;;;38.03;21.23;;;;;;;-1.20;100.00;98504.00;5074263;28;20111;-90
2022/12/12 05:49:16;;;;;;;34.72;21.70;;;;;;;-1.20;100.00;98506.53;5073970;28;20471;-90
2022/12/12 05:51:42;;;;;;;35.25;20.95;;;;;;;-1.29;100.00;98492.22;5074088;28;20352;-90
2022/12/12 05:54:07;;;;;;;31.38;20.08;;;;;;;-1.25;100.00;98506.63;5073722;28;20024;-90
2022/12/12 05:56:32;;;;;;;35.85;19.80;;;;;;;-1.25;100.00;98504.06;5073840;28;20020;-90
2022/12/12 05:58:58;;;;;;;34.20;21.55;;;;;;;-1.24;100.00;98510.88;5074145;28;20370;-90
2022/12/12 06:01:23;;;;;;;36.45;21.05;;;;;;;-1.26;100.00;98510.06;5073628;28;20024;-90
2022/12/12 06:03:48;;;;;;;34.22;20.45;;;;;;;-1.22;100.00;98511.69;5073748;28;20039;-90
2022/12/12 06:06:14;;;;;;;34.67;20.63;;;;;;;-1.22;100.00;98508.28;5073725;28;20321;-90
2022/12/12 06:08:39;;;;;;;32.83;19.88;;;;;;;-1.20;100.00;98517.59;5073852;28;20456;-90
2022/12/12 06:11:06;;;;;;;32.60;19.17;;;;;;;-1.20;100.00;98516.75;5073863;28;20459;-89
2022/12/12 06:13:31;;;;;;;33.60;20.58;;;;;;;-1.22;100.00;98509.13;5073988;28;20023;-90
2022/12/12 06:15:57;;;;;;;33.10;20.40;;;;;;;-1.20;100.00;98515.06;5073712;28;20043;-90
2022/12/12 06:18:22;;;;;;;32.55;20.33;;;;;;;-1.20;100.00;98516.75;5073533;28;20046;-90
2022/12/12 06:20:47;;;;;;;33.97;20.17;;;;;;;-1.21;100.00;98518.47;5073677;28;20020;-88
2022/12/12 06:23:12;;;;;;;32.92;20.73;;;;;;;-1.22;100.00;98519.34;5073488;28;20027;-86
2022/12/12 06:25:38;;;;;;;31.63;18.80;;;;;;;-1.29;100.00;98503.28;5091797;28;20120;-80
2022/12/12 06:28:03;;;;;;;34.97;20.65;;;;;;;-1.17;100.00;98524.38;5091717;28;20506;-81
2022/12/12 06:30:29;;;;;;;33.88;19.75;;;;;;;-1.15;100.00;98525.19;5091707;28;20103;-81
2022/12/12 06:32:54;;;;;;;33.13;20.55;;;;;;;-1.16;100.00;98518.41;5091884;28;20099;-81
2022/12/12 06:35:19;;;;;;;33.10;19.70;;;;;;;-1.07;100.00;98538.66;5091593;28;20024;-81
2022/12/12 06:37:47;;;;;;;31.92;18.60;;;;;;;-1.08;100.00;98534.44;5073596;28;20494;-81
2022/12/12 06:40:12;;;;;;;33.20;20.83;;;;;;;-1.07;100.00;98531.00;5073251;28;20459;-81
2022/12/12 06:42:37;;;;;;;36.65;20.48;;;;;;;-1.11;100.00;98525.09;5091921;28;20032;-81
2022/12/12 06:45:03;;;;;;;34.03;21.15;;;;;;;-1.11;100.00;98531.94;5091769;28;20046;-81
2022/12/12 06:47:28;;;;;;;40.33;21.27;;;;;;;-1.23;100.00;98504.88;5094925;28;20412;-81
2022/12/12 06:49:54;;;;;;;31.90;21.02;;;;;;;-1.13;100.00;98526.84;5095621;28;20528;-81
2022/12/12 06:52:19;;;;;;;30.83;20.13;;;;;;;-1.06;100.00;98528.41;5095515;28;20020;-78
2022/12/12 06:54:45;;;;;;;32.63;19.83;;;;;;;-1.07;100.00;98518.22;5095417;28;20012;-78
2022/12/12 06:57:10;;;;;;;31.42;19.60;;;;;;;-1.03;100.00;98537.75;5095092;28;20367;-78
2022/12/12 06:59:35;;;;;;;30.58;20.23;;;;;;;-1.02;100.00;98537.72;5095775;28;20027;-78
2022/12/12 07:02:01;;;;;;;35.63;21.17;;;;;;;-1.01;100.00;98534.31;5095320;28;20092;-78
2022/12/12 07:04:26;;;;;;;34.92;21.23;;;;;;;-1.05;100.00;98532.69;5094992;28;20036;-78
2022/12/12 07:06:51;;;;;;;33.53;19.55;;;;;;;-1.03;100.00;98533.47;5090530;28;20017;-79
2022/12/12 07:09:18;;;;;;;35.50;20.73;;;;;;;-1.17;100.00;98516.72;5083798;28;20020;-79
2022/12/12 07:11:43;;;;;;;31.35;20.75;;;;;;;-1.11;100.00;98527.66;5093333;28;20028;-78
2022/12/12 07:14:09;;;;;;;35.83;22.75;;;;;;;-1.02;100.00;98545.38;5095053;28;20020;-78
2022/12/12 07:16:35;;;;;;;34.35;20.70;;;;;;;-1.07;100.00;98531.84;5079199;28;20031;-78
2022/12/12 07:19:00;;;;;;;34.58;19.73;;;;;;;-1.07;100.00;98536.97;5074643;28;20032;-79
2022/12/12 07:21:25;;;;;;;27.20;18.45;;;;;;;-1.11;100.00;98525.09;5086708;28;20032;-78
2022/12/12 07:23:51;;;;;;;31.80;19.77;;;;;;;-1.12;100.00;98543.03;5094912;28;20094;-78
2022/12/12 07:26:21;;;;;;;34.30;20.80;;;;;;;-1.27;100.00;98531.34;5094541;28;20097;-78
2022/12/12 07:28:47;;;;;;;;;;;;;;;-1.35;100.00;98551.06;5077247;28;20105;-78
2022/12/12 07:31:14;;;;;;;33.83;21.17;;;;;;;-1.52;100.00;98549.66;5094603;28;19942;-78
2022/12/12 07:33:40;;;;;;;33.80;20.25;;;;;;;-1.60;100.00;98553.16;5094666;28;20459;-78
2022/12/12 07:36:06;;;;;;;32.38;20.77;;;;;;;-1.73;100.00;98549.09;5095380;28;20110;-78
2022/12/12 07:38:32;;;;;;;37.40;21.48;;;;;;;-1.84;100.00;98545.00;5094153;28;20099;-78
2022/12/12 07:41:09;;;;;;;29.63;19.23;;;;;;;-1.83;100.00;98556.06;5094629;28;20511;-78
2022/12/12 07:43:36;;;;;;;31.42;18.38;;;;;;;-1.81;100.00;98560.28;5094406;28;20108;-78
2022/12/12 07:46:01;;;;;;;32.28;19.58;;;;;;;-1.89;100.00;98553.59;5094607;28;20123;-78
2022/12/12 07:48:27;;;;;;;29.20;18.27;;;;;;;-1.88;100.00;98551.03;5094554;28;20102;-78
2022/12/12 07:50:53;;;;;;;33.83;20.10;;;;;;;-1.79;100.00;98566.19;5094404;28;20154;-78
2022/12/12 07:53:18;;;;;;;33.42;21.27;;;;;;;-1.80;100.00;98556.88;5094163;28;20106;-78
2022/12/12 07:55:44;;;;;;;31.48;20.95;;;;;;;-1.82;100.00;98550.09;5094607;28;20464;-78
2022/12/12 07:58:10;;;;;;;30.85;20.00;;;;;;;-1.75;100.00;98561.91;5093158;28;20034;-78
2022/12/12 08:00:35;;;;;;;30.60;19.45;;;;;;;-1.73;100.00;98566.97;5094094;28;20052;-78
2022/12/12 08:03:00;;;;;;;25.90;18.00;;;;;;;-1.81;100.00;98554.34;5094180;28;20046;-77
2022/12/12 08:05:26;;;;;;;25.08;16.90;;;;;;;-1.75;100.00;98564.44;5093819;28;20098;-77
2022/12/12 08:07:51;;;;;;;27.60;17.48;;;;;;;-1.84;100.00;98556.94;5093962;28;20362;-78
2022/12/12 08:10:16;;;;;;;26.88;18.48;;;;;;;-1.84;100.00;98557.78;5094011;28;20042;-78
2022/12/12 08:12:42;;;;;;;24.60;16.85;;;;;;;-1.73;100.00;98574.63;5094154;28;20081;-78
2022/12/12 08:15:08;;;;;;;27.60;19.15;;;;;;;-1.76;100.00;98566.16;5094305;28;20077;-78
2022/12/12 08:17:33;;;;;;;27.85;18.13;;;;;;;-1.81;100.00;98556.91;5093662;28;20101;-78
2022/12/12 08:19:59;;;;;;;28.85;18.67;;;;;;;-1.75;100.00;98572.13;5093840;28;20451;-78
2022/12/12 08:22:24;;;;;;;29.52;18.63;;;;;;;-1.79;100.00;98563.66;5093529;28;20024;-77
2022/12/12 08:24:49;;;;;;;28.90;18.50;;;;;;;-1.78;100.00;98564.50;5093935;28;20470;-78
2022/12/12 08:27:15;;;;;;;31.95;19.73;;;;;;;-1.80;100.00;98559.41;5075477;28;20051;-78
2022/12/12 08:29:40;;;;;;;34.40;20.52;;;;;;;-1.79;100.00;98566.19;5093659;28;20031;-77
2022/12/12 08:32:06;;;;;;;33.38;20.60;;;;;;;-1.77;100.00;98567.03;5093696;28;20020;-78
2022/12/12 08:34:31;;;;;;;38.25;22.65;;;;;;;-1.73;100.00;98574.63;5093353;28;20023;-77
2022/12/12 08:36:56;;;;;;;35.88;21.58;;;;;;;-1.70;100.00;98583.09;5093261;28;20027;-78
2022/12/12 08:39:22;;;;;;;40.38;23.02;;;;;;;-1.70;100.00;98567.78;5093158;28;20031;-78
2022/12/12 08:41:47;;;;;;;39.10;22.67;;;;;;;-1.61;100.00;98590.63;5093556;28;20035;-78
2022/12/12 08:44:15;;;;;;;39.58;22.85;;;;;;;-1.64;100.00;98587.28;5093524;28;20019;-78
2022/12/12 08:46:40;;;;;;;37.03;22.88;;;;;;;-1.62;100.00;98581.28;5093314;28;20157;-78
2022/12/12 08:49:07;;;;;;;34.20;21.85;;;;;;;-1.61;100.00;98582.13;5093239;28;20477;-77
2022/12/12 08:51:33;;;;;;;42.35;23.83;;;;;;;-1.57;100.00;98593.97;5093165;28;20032;-78
2022/12/12 08:53:58;;;;;;;40.60;22.65;;;;;;;-1.52;100.00;98602.41;5093153;28;20035;-77
2022/12/12 08:56:24;;;;;;;38.80;23.70;;;;;;;-1.54;100.00;98586.28;5093025;28;20020;-78
2022/12/12 08:58:49;;;;;;;39.10;24.02;;;;;;;-1.53;100.00;98586.25;5093176;28;20030;-78
2022/12/12 09:01:18;;;;;;;32.55;20.70;;;;;;;-1.47;100.00;98589.59;5093091;28;20440;-78
2022/12/12 09:03:43;;;;;;;37.03;22.60;;;;;;;-1.45;100.00;98598.91;5093024;28;20040;-78
2022/12/12 09:06:09;;;;;;;41.13;24.90;;;;;;;-1.39;100.00;98596.25;5092901;28;20023;-78
2022/12/12 09:08:36;;;;;;;35.45;23.77;;;;;;;-1.34;100.00;98597.03;5092637;28;20471;-78
2022/12/12 09:11:02;;;;;;;37.42;21.52;;;;;;;-1.34;100.00;98599.59;5092908;28;20027;-78
2022/12/12 09:13:28;;;;;;;32.38;21.50;;;;;;;-1.28;100.00;98607.13;5092639;28;20016;-78
2022/12/12 09:15:54;;;;;;;37.10;22.40;;;;;;;-1.26;100.00;98602.88;5092829;28;20042;-78
2022/12/12 09:18:19;;;;;;;36.08;23.30;;;;;;;-1.35;100.00;98582.59;5092260;28;20020;-78
2022/12/12 09:20:56;;;;;;;39.03;24.48;;;;;;;-1.15;100.00;98597.56;5092720;28;20427;-77
2022/12/12 09:23:23;;;;;;;32.90;22.13;;;;;;;-1.03;100.00;98594.81;5092541;28;20019;-78
2022/12/12 09:25:48;;;;;;;41.17;25.40;;;;;;;-0.92;100.00;98596.34;5092505;28;20445;-78
2022/12/12 09:28:15;;;;;;;42.28;25.13;;;;;;;-0.90;100.00;98595.44;5092649;28;20051;-78
2022/12/12 09:30:42;;;;;;;38.47;23.42;;;;;;;-0.89;100.00;98614.16;5074097;28;20364;-78
2022/12/12 09:33:07;;;;;;;34.17;22.90;;;;;;;-1.01;100.00;98615.25;5092300;28;20032;-78
2022/12/12 09:35:33;;;;;;;40.70;23.98;;;;;;;-1.10;100.00;98613.66;5092371;28;20012;-78
2022/12/12 09:37:59;;;;;;;42.10;24.67;;;;;;;-1.17;100.00;98612.09;5092469;28;20110;-78
2022/12/12 09:40:30;;;;;;;39.05;24.98;;;;;;;-1.22;100.00;98606.22;5092071;28;20063;-78
2022/12/12 09:42:56;;;;;;;36.67;23.25;;;;;;;-1.17;100.00;98613.81;5092393;28;20058;-78
2022/12/12 09:45:21;;;;;;;42.45;24.80;;;;;;;-1.19;100.00;98611.25;5092109;28;20051;-78
2022/12/12 09:47:52;;;;;;;46.97;25.92;;;;;;;-1.23;100.00;98614.72;5092172;28;20459;-78
2022/12/12 09:50:31;;;;;;;49.45;28.45;;;;;;;-1.22;100.00;98603.66;5092756;28;20028;-78
2022/12/12 09:53:00;;;;;;;43.65;24.15;;;;;;;-1.14;100.00;98626.50;5092307;28;20446;-78
2022/12/12 09:56:03;;;;;;;41.55;24.40;;;;;;;-1.11;100.00;98617.09;5091990;28;20023;-78
2022/12/12 09:58:47;;;;;;;40.08;24.73;;;;;;;-1.10;100.00;98623.03;5092001;28;20359;-78
2022/12/12 10:01:24;;;;;;;38.45;24.75;;;;;;;-1.08;100.00;98623.88;5092277;28;20026;-78
2022/12/12 10:03:58;;;;;;;39.97;25.63;;;;;;;-1.06;100.00;98627.22;5092106;28;20460;-78
2022/12/12 10:06:28;;;;;;;36.67;22.63;;;;;;;-1.03;100.00;98627.19;5073553;28;20023;-78
2022/12/12 10:09:12;;;;;;;38.30;24.40;;;;;;;-1.00;100.00;98627.16;5092362;28;20024;-78
2022/12/12 10:11:49;;;;;;;40.15;25.25;;;;;;;-1.00;100.00;98627.16;5091831;28;20468;-78
2022/12/12 10:14:36;;;;;;;39.42;23.77;;;;;;;-1.01;100.00;98626.31;5092120;28;20030;-78
2022/12/12 10:17:07;;;;;;;41.47;24.63;;;;;;;-1.01;100.00;98625.47;5091866;28;20107;-78
2022/12/12 10:19:40;;;;;;;41.67;25.48;;;;;;;-1.01;100.00;98625.47;5092009;28;20027;-78
2022/12/12 10:22:20;;;;;;;41.40;25.58;;;;;;;-0.99;100.00;98621.16;5095057;28;20039;-78
2022/12/12 10:25:05;;;;;;;40.47;24.88;;;;;;;-0.98;100.00;98604.13;5077824;28;20125;-78
2022/12/12 10:27:30;;;;;;;40.20;24.25;;;;;;;-0.97;100.00;98606.63;5096045;28;20343;-78
2022/12/12 10:30:03;;;;;;;41.58;23.23;;;;;;;-0.92;100.00;98609.13;5077906;28;20103;-78
2022/12/12 10:32:50;;;;;;;40.30;24.52;;;;;;;-0.82;100.00;98620.88;5095798;28;20031;-78
2022/12/12 10:35:40;;;;;;;35.83;22.83;;;;;;;-0.80;100.00;98608.91;5095946;28;20124;-78
2022/12/12 10:38:15;;;;;;;39.10;23.52;;;;;;;-0.72;100.00;98617.28;5096035;28;20541;-78
2022/12/12 10:40:57;;;;;;;32.53;22.65;;;;;;;-0.78;100.00;98596.94;5095595;28;20028;-78
2022/12/12 10:43:30;;;;;;;35.45;22.83;;;;;;;-0.80;100.00;98589.31;5095800;28;20016;-78
2022/12/12 10:46:05;;;;;;;31.83;20.50;;;;;;;-0.61;100.00;98620.50;5095871;28;20031;-78
2022/12/12 10:48:30;;;;;;;32.25;21.48;;;;;;;-0.64;100.00;98602.66;5095590;28;20016;-78
2022/12/12 10:51:07;;;;;;;31.88;21.05;;;;;;;-0.61;100.00;98597.47;5095746;28;20028;-78
2022/12/12 10:53:33;;;;;;;35.40;22.90;;;;;;;-0.51;100.00;98610.94;5095273;28;20066;-78
2022/12/12 10:56:04;;;;;;;34.35;21.10;;;;;;;-0.43;100.00;98615.91;5095526;28;20020;-78
2022/12/12 10:58:36;;;;;;;32.88;21.17;;;;;;;-0.28;100.00;98606.22;5095025;28;20024;-78
2022/12/12 11:01:10;;;;;;;30.70;20.00;;;;;;;-0.21;100.00;98603.53;5095552;28;20118;-78
2022/12/12 11:03:39;;;;;;;32.90;20.83;;;;;;;-0.32;100.00;98601.22;5095021;28;20128;-78
2022/12/12 11:06:20;;;;;;;31.55;18.75;;;;;;;-0.27;100.00;98605.34;5095253;28;20467;-78
2022/12/12 11:09:16;;;;;;;30.45;17.83;;;;;;;-0.27;100.00;98613.03;5095137;28;20436;-78
2022/12/12 11:11:55;;;;;;;31.85;19.70;;;;;;;-0.31;100.00;98601.16;4993001;28;20027;-78
2022/12/12 11:14:28;;;;;;;34.65;20.40;;;;;;;-0.33;100.00;98600.38;4993085;28;20022;-78
2022/12/12 11:16:53;;;;;;;31.95;20.20;;;;;;;-0.29;100.00;98601.16;4992932;28;20041;-78
2022/12/12 11:19:23;;;;;;;32.58;19.05;;;;;;;-0.23;100.00;98607.84;4993005;28;20152;-78
2022/12/12 11:21:50;;;;;;;29.10;18.90;;;;;;;-0.27;100.00;98604.50;4992805;28;20041;-78
2022/12/12 11:24:21;;;;;;;30.75;19.13;;;;;;;-0.32;100.00;98611.44;4993045;28;20030;-78
2022/12/12 11:27:03;;;;;;;25.30;16.88;;;;;;;-0.37;100.00;98595.34;4992742;28;20532;-78
2022/12/12 11:30:06;;;;;;;27.80;17.63;;;;;;;-0.21;100.00;98618.88;4992556;28;20034;-78
2022/12/12 11:32:42;;;;;;;33.60;17.98;;;;;;;-0.23;100.00;98606.13;4993065;28;20018;-78
2022/12/12 11:35:30;;;;;;;27.77;17.73;;;;;;;-0.17;100.00;98618.81;4992797;28;20042;-78
2022/12/12 11:38:00;;;;;;;32.80;19.15;;;;;;;-0.16;100.00;98614.53;4992892;28;20030;-78